createdAt,value
2023-03-26T00:01:38.010Z,26.95
2023-03-26T00:04:07.048Z,25.25
2023-03-26T00:06:38.771Z,32.72
2023-03-26T00:09:08.660Z,25.38
2023-03-26T00:11:35.245Z,23.75
2023-03-26T00:14:02.622Z,27.52
2023-03-26T00:16:31.530Z,29.63
2023-03-26T00:18:58.667Z,30.52
2023-03-26T00:21:28.013Z,28.70
2023-03-26T00:24:00.909Z,32.17
2023-03-26T00:26:29.288Z,26.30
2023-03-26T00:28:55.707Z,26.38
2023-03-26T00:31:22.081Z,28.77
2023-03-26T00:33:54.154Z,24.98
2023-03-26T00:36:20.624Z,35.67
2023-03-26T00:38:47.905Z,27.98
2023-03-26T00:41:24.792Z,34.80
2023-03-26T00:43:57.105Z,29.10
2023-03-26T00:46:25.403Z,31.35
2023-03-26T00:48:51.954Z,32.33
2023-03-26T00:51:20.613Z,25.52
2023-03-26T00:53:48.817Z,35.35
2023-03-26T00:56:15.212Z,30.55
2023-03-26T00:58:42.023Z,35.15
2023-03-26T01:01:14.648Z,27.40
2023-03-26T01:03:53.226Z,30.02
2023-03-26T01:06:36.484Z,32.42
2023-03-26T01:09:18.640Z,25.75
2023-03-26T01:11:47.713Z,26.05
2023-03-26T01:14:18.342Z,28.67
2023-03-26T01:16:51.929Z,30.60
2023-03-26T01:19:57.071Z,26.42
2023-03-26T01:22:26.677Z,28.10
2023-03-26T01:24:56.070Z,28.17
2023-03-26T01:27:38.751Z,23.60
2023-03-26T01:30:11.036Z,29.95
2023-03-26T01:32:58.092Z,26.52
2023-03-26T01:35:48.784Z,29.77
2023-03-26T01:38:31.491Z,27.02
2023-03-26T01:41:10.717Z,24.25
2023-03-26T01:43:49.501Z,24.95
2023-03-26T01:46:17.663Z,23.77
2023-03-26T01:48:46.498Z,27.05
2023-03-26T01:51:15.017Z,28.90
2023-03-26T01:53:44.891Z,24.77
2023-03-26T01:56:19.820Z,26.95
2023-03-26T01:59:23.015Z,27.08
2023-03-26T02:02:07.065Z,24.00
2023-03-26T02:04:42.073Z,25.20
2023-03-26T02:07:17.776Z,22.75
2023-03-26T02:09:55.856Z,24.08
2023-03-26T02:12:23.704Z,22.17
2023-03-26T02:14:50.537Z,25.85
2023-03-26T02:17:19.002Z,28.58
2023-03-26T02:19:45.402Z,24.55
2023-03-26T02:22:15.563Z,23.65
2023-03-26T02:24:43.390Z,26.80
2023-03-26T02:27:12.181Z,25.83
2023-03-26T02:29:39.920Z,23.77
2023-03-26T02:32:07.659Z,24.23
2023-03-26T02:34:34.104Z,24.10
2023-03-26T02:37:02.988Z,25.50
2023-03-26T02:39:29.394Z,25.77
2023-03-26T02:41:55.714Z,24.98
2023-03-26T02:44:22.092Z,24.67
2023-03-26T02:46:48.446Z,24.73
2023-03-26T02:49:14.814Z,25.58
2023-03-26T02:51:41.267Z,23.42
2023-03-26T02:54:07.633Z,25.10
2023-03-26T02:56:34.047Z,23.10
2023-03-26T02:59:00.691Z,23.65
2023-03-26T03:01:30.712Z,23.38
2023-03-26T03:03:57.557Z,22.20
2023-03-26T03:06:26.347Z,23.70
2023-03-26T03:08:53.932Z,21.70
2023-03-26T03:11:22.147Z,24.50
2023-03-26T03:13:49.033Z,22.63
2023-03-26T03:16:15.683Z,25.27
2023-03-26T03:18:42.125Z,24.95
2023-03-26T03:21:08.552Z,23.02
2023-03-26T03:23:34.989Z,22.40
2023-03-26T03:26:02.471Z,23.10
2023-03-26T03:28:29.128Z,26.35
2023-03-26T03:30:57.493Z,27.92
2023-03-26T03:33:24.405Z,27.15
2023-03-26T03:35:50.804Z,28.65
2023-03-26T03:38:17.725Z,31.30
2023-03-26T03:40:44.747Z,31.67
2023-03-26T03:43:11.323Z,31.52
2023-03-26T03:45:37.730Z,35.17
2023-03-26T03:48:04.398Z,33.35
2023-03-26T03:50:33.031Z,32.22
2023-03-26T03:53:01.017Z,40.53
2023-03-26T03:55:27.639Z,39.03
2023-03-26T03:57:54.608Z,36.63
2023-03-26T04:00:22.554Z,36.17
2023-03-26T04:02:49.012Z,36.63
2023-03-26T04:05:15.575Z,35.45
2023-03-26T04:07:42.072Z,37.80
2023-03-26T04:10:09.441Z,36.58
2023-03-26T04:12:35.853Z,37.60
2023-03-26T04:15:02.313Z,38.85
2023-03-26T04:17:30.484Z,36.53
2023-03-26T04:19:57.310Z,35.17
2023-03-26T04:22:26.106Z,37.08
2023-03-26T04:24:54.246Z,35.95
2023-03-26T04:27:27.171Z,33.92
2023-03-26T04:29:53.849Z,34.83
2023-03-26T04:32:29.588Z,35.67
2023-03-26T04:35:00.177Z,32.53
2023-03-26T04:37:35.392Z,37.25
2023-03-26T04:40:10.764Z,35.58
2023-03-26T04:42:41.568Z,34.70
2023-03-26T04:45:09.096Z,33.60
2023-03-26T04:47:37.088Z,33.70
2023-03-26T04:50:08.485Z,34.67
2023-03-26T04:52:35.576Z,32.65
2023-03-26T04:55:02.832Z,30.92
2023-03-26T04:57:35.849Z,34.55
2023-03-26T05:00:08.966Z,31.98
2023-03-26T05:02:37.476Z,34.53
2023-03-26T05:05:04.232Z,33.58
2023-03-26T05:07:30.662Z,33.15
2023-03-26T05:09:57.449Z,32.95
2023-03-26T05:12:23.939Z,35.45
2023-03-26T05:14:50.321Z,35.72
2023-03-26T05:17:18.762Z,35.50
2023-03-26T05:19:46.602Z,37.25
2023-03-26T05:22:13.173Z,38.20
2023-03-26T05:24:39.561Z,43.50
2023-03-26T05:27:06.330Z,40.60
2023-03-26T05:29:32.718Z,40.78
2023-03-26T05:31:59.025Z,40.10
2023-03-26T05:34:26.963Z,39.58
2023-03-26T05:36:53.604Z,39.80
2023-03-26T05:39:25.531Z,40.45
2023-03-26T05:41:52.864Z,36.70
2023-03-26T05:44:19.570Z,40.42
2023-03-26T05:46:46.233Z,40.00
2023-03-26T05:49:12.599Z,40.42
2023-03-26T05:51:39.036Z,40.05
2023-03-26T05:54:05.523Z,39.25
2023-03-26T05:56:31.907Z,38.75
2023-03-26T05:58:58.323Z,44.03
2023-03-26T06:01:25.448Z,39.00
2023-03-26T06:03:52.275Z,38.42
2023-03-26T06:06:20.506Z,36.80
2023-03-26T06:09:00.906Z,37.78
2023-03-26T06:11:28.800Z,38.08
2023-03-26T06:13:55.195Z,38.22
2023-03-26T06:16:27.103Z,34.60
2023-03-26T06:18:56.271Z,37.22
2023-03-26T06:21:25.068Z,36.40
2023-03-26T06:23:51.718Z,32.63
2023-03-26T06:26:18.414Z,34.58
2023-03-26T06:28:44.769Z,36.80
2023-03-26T06:31:11.811Z,35.60
2023-03-26T06:33:38.297Z,36.67
2023-03-26T06:36:05.309Z,40.90
2023-03-26T06:38:31.747Z,42.42
2023-03-26T06:41:07.398Z,41.97
2023-03-26T06:43:36.150Z,42.80
2023-03-26T06:46:03.682Z,43.08
2023-03-26T06:48:30.537Z,43.95
2023-03-26T06:50:59.795Z,42.08
2023-03-26T06:53:26.310Z,44.15
2023-03-26T06:55:54.369Z,44.38
2023-03-26T06:58:22.308Z,43.78
2023-03-26T07:00:49.886Z,42.40
2023-03-26T07:03:17.288Z,49.00
2023-03-26T07:05:43.851Z,46.08
2023-03-26T07:08:10.462Z,44.58
2023-03-26T07:10:38.112Z,47.03
2023-03-26T07:13:04.648Z,44.67
2023-03-26T07:15:31.116Z,46.97
2023-03-26T07:17:57.507Z,49.90
2023-03-26T07:20:24.366Z,51.33
2023-03-26T07:22:52.378Z,51.50
2023-03-26T07:25:19.235Z,54.05
2023-03-26T07:27:54.931Z,54.28
2023-03-26T07:30:32.186Z,58.40
2023-03-26T07:33:06.706Z,57.20
2023-03-26T07:35:55.152Z,57.10
2023-03-26T07:38:50.508Z,57.28
2023-03-26T07:41:43.561Z,55.45
2023-03-26T07:44:35.665Z,60.38
2023-03-26T07:47:10.789Z,62.65
2023-03-26T07:49:37.624Z,64.25
2023-03-26T07:52:05.147Z,68.43
2023-03-26T07:54:31.810Z,66.82
2023-03-26T07:57:04.422Z,71.00
2023-03-26T07:59:44.678Z,69.60
2023-03-26T08:02:21.291Z,70.68
2023-03-26T08:04:57.578Z,75.65
2023-03-26T08:07:29.724Z,77.07
2023-03-26T08:10:26.092Z,75.28
2023-03-26T08:13:04.593Z,71.93
2023-03-26T08:16:05.653Z,77.45
2023-03-26T08:18:59.417Z,79.32
2023-03-26T08:21:34.720Z,71.90
2023-03-26T08:24:13.984Z,75.43
2023-03-26T08:26:45.953Z,83.55
2023-03-26T08:29:32.747Z,79.93
2023-03-26T08:32:00.207Z,76.85
2023-03-26T08:34:26.632Z,77.05
2023-03-26T08:36:52.985Z,84.82
2023-03-26T08:39:22.159Z,79.68
2023-03-26T08:42:00.725Z,77.32
2023-03-26T08:44:49.065Z,73.80
2023-03-26T08:48:01.688Z,73.65
2023-03-26T08:51:04.060Z,74.32
2023-03-26T08:54:00.570Z,75.70
2023-03-26T08:56:39.313Z,73.03
2023-03-26T08:59:43.521Z,77.28
2023-03-26T09:02:52.110Z,66.90
2023-03-26T09:05:44.129Z,66.88
2023-03-26T09:08:22.608Z,63.50
2023-03-26T09:11:10.549Z,59.60
2023-03-26T09:13:52.644Z,60.42
2023-03-26T09:16:33.930Z,60.95
2023-03-26T09:19:20.825Z,61.85
2023-03-26T09:22:17.008Z,63.33
2023-03-26T09:25:10.368Z,57.40
2023-03-26T09:28:39.250Z,61.28
2023-03-26T09:31:27.557Z,58.80
2023-03-26T09:34:15.449Z,60.33
2023-03-26T09:36:47.728Z,61.83
2023-03-26T09:39:40.058Z,64.30
2023-03-26T09:42:11.561Z,63.97
2023-03-26T09:45:15.869Z,69.40
2023-03-26T09:48:05.442Z,63.90
2023-03-26T09:50:56.169Z,65.78
2023-03-26T09:53:48.893Z,67.65
2023-03-26T09:56:38.362Z,68.35
2023-03-26T09:59:36.268Z,66.78
2023-03-26T10:02:14.764Z,63.70
2023-03-26T10:05:05.015Z,67.45
2023-03-26T10:07:50.339Z,87.28
2023-03-26T10:10:50.795Z,68.15
2023-03-26T10:13:50.954Z,65.22
2023-03-26T10:16:31.313Z,60.03
2023-03-26T10:19:35.299Z,62.90
2023-03-26T10:22:42.440Z,54.97
2023-03-26T10:25:28.922Z,54.78
2023-03-26T10:28:34.502Z,57.65
2023-03-26T10:31:16.798Z,53.00
2023-03-26T10:34:11.077Z,55.58
2023-03-26T10:37:25.045Z,54.08
2023-03-26T10:40:10.230Z,51.63
2023-03-26T10:42:55.693Z,54.72
2023-03-26T10:45:38.857Z,55.17
2023-03-26T10:48:35.816Z,53.35
2023-03-26T10:51:12.834Z,50.67
2023-03-26T10:53:47.701Z,49.08
2023-03-26T10:56:42.449Z,50.25
2023-03-26T10:59:12.932Z,45.03
2023-03-26T11:01:46.629Z,39.20
2023-03-26T11:04:26.260Z,35.45
2023-03-26T11:07:06.574Z,35.65
2023-03-26T11:09:52.012Z,32.15
2023-03-26T11:12:36.685Z,32.58
2023-03-26T11:15:06.278Z,32.47
2023-03-26T11:17:41.628Z,34.40
2023-03-26T11:20:18.458Z,34.55
2023-03-26T11:23:01.785Z,35.10
2023-03-26T11:25:46.536Z,35.28
2023-03-26T11:29:04.035Z,34.10
2023-03-26T11:31:59.291Z,31.70
2023-03-26T11:34:34.698Z,31.33
2023-03-26T11:37:05.130Z,32.42
2023-03-26T11:39:51.121Z,30.30
2023-03-26T11:42:21.679Z,32.53
2023-03-26T11:44:57.269Z,33.00
2023-03-26T11:47:40.409Z,30.70
2023-03-26T11:50:18.543Z,31.00
2023-03-26T11:52:46.896Z,31.17
2023-03-26T11:55:13.996Z,32.63
2023-03-26T11:57:47.846Z,33.20
2023-03-26T12:00:20.863Z,31.67
2023-03-26T12:02:48.689Z,33.35
2023-03-26T12:05:26.387Z,32.72
2023-03-26T12:07:53.990Z,35.65
2023-03-26T12:10:24.506Z,33.10
2023-03-26T12:12:54.507Z,30.13
2023-03-26T12:15:21.892Z,28.75
2023-03-26T12:17:56.101Z,28.20
2023-03-26T12:22:59.716Z,29.40
2023-03-26T12:28:02.747Z,29.65
2023-03-26T12:31:12.251Z,28.95
2023-03-26T12:33:41.871Z,29.83
2023-03-26T12:36:44.175Z,31.70
2023-03-26T12:44:53.291Z,29.85
2023-03-26T12:49:53.054Z,29.30
2023-03-26T12:52:43.747Z,31.27
2023-03-26T12:55:23.652Z,32.95
2023-03-26T12:58:28.808Z,33.05
2023-03-26T13:01:15.729Z,29.63
2023-03-26T13:03:57.172Z,30.42
2023-03-26T13:10:10.737Z,31.73
2023-03-26T13:12:51.321Z,30.17
2023-03-26T13:15:55.171Z,29.67
2023-03-26T13:18:36.382Z,31.35
2023-03-26T13:21:33.374Z,27.77
2023-03-26T13:24:28.541Z,29.08
2023-03-26T13:27:19.193Z,26.80
2023-03-26T13:30:09.578Z,26.27
2023-03-26T13:33:01.115Z,27.98
2023-03-26T13:35:38.966Z,21.38
2023-03-26T13:38:14.199Z,23.10
2023-03-26T13:41:21.993Z,24.85
2023-03-26T13:44:00.946Z,23.38
2023-03-26T13:46:47.241Z,22.95
2023-03-26T13:49:24.762Z,22.10
2023-03-26T13:52:02.475Z,24.02
2023-03-26T13:58:02.174Z,24.00
2023-03-26T14:00:47.850Z,21.70
2023-03-26T14:04:08.761Z,22.42
2023-03-26T14:07:15.880Z,22.90
2023-03-26T14:09:48.307Z,23.27
2023-03-26T14:12:32.077Z,25.30
2023-03-26T14:15:07.003Z,26.83
2023-03-26T14:17:58.698Z,29.90
2023-03-26T14:20:47.585Z,16.42
2023-03-26T14:23:16.920Z,20.13
2023-03-26T14:26:02.806Z,25.50
2023-03-26T14:29:07.579Z,26.42
2023-03-26T14:31:52.626Z,26.55
2023-03-26T14:34:38.376Z,24.38
2023-03-26T14:37:29.656Z,20.67
2023-03-26T14:40:28.015Z,19.23
2023-03-26T14:43:04.252Z,17.70
2023-03-26T14:45:59.483Z,17.80
2023-03-26T14:49:27.847Z,17.83
2023-03-26T14:52:13.791Z,14.93
2023-03-26T14:54:55.989Z,18.83
2023-03-26T14:57:46.415Z,20.65
2023-03-26T15:00:42.611Z,18.50
2023-03-26T15:03:09.168Z,18.65
2023-03-26T15:06:15.948Z,20.30
2023-03-26T15:09:13.718Z,20.05
2023-03-26T15:11:45.827Z,19.23
2023-03-26T15:14:43.658Z,24.02
2023-03-26T15:17:28.826Z,20.92
2023-03-26T15:20:19.963Z,22.85
2023-03-26T15:22:59.629Z,22.20
2023-03-26T15:25:45.341Z,20.98
2023-03-26T15:28:31.782Z,22.88
2023-03-26T15:31:06.511Z,24.88
2023-03-26T15:34:04.105Z,25.25
2023-03-26T15:37:12.624Z,26.33
2023-03-26T15:40:10.001Z,26.77
2023-03-26T15:42:54.814Z,27.92
2023-03-26T15:45:56.466Z,29.92
2023-03-26T15:48:34.777Z,30.00
2023-03-26T15:51:28.640Z,29.40
2023-03-26T15:54:16.490Z,28.20
2023-03-26T15:56:42.911Z,27.70
2023-03-26T15:59:41.853Z,28.15
2023-03-26T16:02:36.337Z,29.00
2023-03-26T16:05:30.957Z,32.75
2023-03-26T16:08:04.288Z,30.88
2023-03-26T16:10:47.068Z,32.53
2023-03-26T16:13:19.603Z,34.17
2023-03-26T16:16:06.733Z,28.65
2023-03-26T16:18:35.814Z,29.33
2023-03-26T16:21:32.048Z,30.58
2023-03-26T16:24:02.268Z,31.15
2023-03-26T16:26:31.405Z,30.70
2023-03-26T16:29:16.518Z,31.45
2023-03-26T16:32:07.596Z,30.92
2023-03-26T16:34:57.932Z,31.38
2023-03-26T16:37:35.838Z,28.63
2023-03-26T16:40:32.653Z,36.80
2023-03-26T16:43:20.518Z,35.08
2023-03-26T16:46:00.510Z,41.45
2023-03-26T16:49:04.603Z,41.65
2023-03-26T16:52:02.384Z,47.30
2023-03-26T16:54:36.027Z,45.13
2023-03-26T16:57:25.958Z,52.00
2023-03-26T17:00:13.358Z,49.90
2023-03-26T17:02:59.879Z,51.45
2023-03-26T17:05:37.485Z,57.17
2023-03-26T17:08:11.552Z,58.90
2023-03-26T17:11:03.467Z,55.60
2023-03-26T17:14:03.769Z,52.90
2023-03-26T17:16:41.167Z,57.08
2023-03-26T17:19:38.731Z,55.42
2023-03-26T17:22:22.016Z,54.72
2023-03-26T17:25:04.808Z,49.90
2023-03-26T17:27:46.880Z,49.05
2023-03-26T17:30:49.246Z,51.50
2023-03-26T17:33:36.823Z,52.10
2023-03-26T17:36:12.601Z,48.42
2023-03-26T17:38:39.082Z,42.92
2023-03-26T17:41:11.872Z,42.45
2023-03-26T17:43:38.554Z,38.67
2023-03-26T17:46:25.309Z,39.13
2023-03-26T17:49:13.839Z,31.55
2023-03-26T17:51:44.632Z,27.33
2023-03-26T17:54:24.048Z,26.20
2023-03-26T17:56:53.060Z,20.88
2023-03-26T17:59:25.096Z,22.83
2023-03-26T18:01:56.080Z,21.73
2023-03-26T18:04:31.858Z,23.85
2023-03-26T18:07:01.350Z,23.42
2023-03-26T18:10:00.302Z,20.23
2023-03-26T18:12:40.770Z,18.35
2023-03-26T18:15:37.768Z,23.00
2023-03-26T18:18:26.377Z,17.60
2023-03-26T18:20:55.018Z,17.90
2023-03-26T18:23:49.903Z,20.65
2023-03-26T18:26:21.408Z,14.45
2023-03-26T18:29:09.350Z,20.55
2023-03-26T18:31:38.561Z,17.15
2023-03-26T18:34:16.937Z,19.00
2023-03-26T18:36:43.320Z,15.20
2023-03-26T18:39:13.314Z,13.73
2023-03-26T18:41:44.248Z,18.15
2023-03-26T18:44:15.618Z,18.00
2023-03-26T18:46:47.903Z,13.70
2023-03-26T18:49:17.134Z,13.43
2023-03-26T18:51:56.193Z,11.45
2023-03-26T18:54:24.060Z,17.88
2023-03-26T18:56:52.358Z,15.57
2023-03-26T18:59:27.807Z,13.48
2023-03-26T19:01:59.833Z,15.80
2023-03-26T19:04:30.898Z,17.75
2023-03-26T19:06:57.761Z,13.95
2023-03-26T19:09:31.704Z,16.48
2023-03-26T19:12:18.240Z,9.88
2023-03-26T19:15:04.058Z,12.32
2023-03-26T19:17:36.408Z,12.85
2023-03-26T19:20:09.720Z,10.30
2023-03-26T19:22:36.961Z,12.90
2023-03-26T19:25:12.565Z,14.48
2023-03-26T19:27:39.261Z,15.77
2023-03-26T19:30:07.508Z,9.82
2023-03-26T19:32:37.791Z,15.80
2023-03-26T19:35:22.821Z,12.90
2023-03-26T19:37:51.653Z,12.35
2023-03-26T19:40:22.201Z,12.48
2023-03-26T19:42:50.563Z,15.40
2023-03-26T19:45:26.933Z,10.60
2023-03-26T19:48:03.547Z,11.57
2023-03-26T19:50:45.389Z,9.10
2023-03-26T19:53:21.739Z,14.27
2023-03-26T19:56:05.258Z,8.20
2023-03-26T20:01:00.557Z,10.75
2023-03-26T20:03:36.739Z,14.05
2023-03-26T20:06:03.550Z,12.82
2023-03-26T20:08:29.941Z,10.50
2023-03-26T20:10:57.390Z,7.78
2023-03-26T20:13:23.953Z,8.65
2023-03-26T20:16:04.996Z,9.77
2023-03-26T20:18:35.376Z,12.60
2023-03-26T20:21:02.091Z,7.07
2023-03-26T20:23:28.871Z,13.32
2023-03-26T20:25:55.768Z,9.70
2023-03-26T20:28:24.603Z,10.38
2023-03-26T20:30:54.299Z,16.25
2023-03-26T20:33:27.648Z,14.18
2023-03-26T20:36:00.310Z,13.18
2023-03-26T20:38:39.053Z,10.45
2023-03-26T20:41:10.325Z,7.68
2023-03-26T20:43:37.372Z,13.95
2023-03-26T20:46:05.890Z,10.43
2023-03-26T20:48:32.483Z,13.35
2023-03-26T20:50:58.899Z,11.25
2023-03-26T20:53:25.441Z,8.13
2023-03-26T20:55:52.132Z,12.55
2023-03-26T20:58:31.506Z,15.77
2023-03-26T21:01:02.498Z,12.85
2023-03-26T21:03:29.565Z,10.75
2023-03-26T21:05:59.863Z,9.02
2023-03-26T21:08:30.154Z,12.95
2023-03-26T21:10:58.639Z,10.95
2023-03-26T21:13:38.941Z,9.20
2023-03-26T21:16:06.459Z,11.57
2023-03-26T21:18:33.395Z,13.82
2023-03-26T21:21:20.089Z,8.00
2023-03-26T21:23:59.203Z,9.77
2023-03-26T21:26:34.596Z,15.85
2023-03-26T21:29:08.660Z,12.23
2023-03-26T21:31:38.069Z,10.27
2023-03-26T21:34:05.540Z,8.55
2023-03-26T21:36:33.363Z,11.73
2023-03-26T21:39:00.037Z,9.27
2023-03-26T21:42:04.780Z,11.55
2023-03-26T21:44:33.077Z,7.05
2023-03-26T21:46:59.893Z,10.52
2023-03-26T21:49:26.705Z,14.73
2023-03-26T21:51:53.288Z,10.25
2023-03-26T21:54:31.869Z,7.03
2023-03-26T21:57:09.693Z,9.25
2023-03-26T21:59:59.963Z,8.02
2023-03-26T22:02:44.031Z,16.13
2023-03-26T22:05:18.007Z,11.25
2023-03-26T22:07:56.987Z,10.40
2023-03-26T22:10:23.363Z,12.15
2023-03-26T22:12:50.232Z,10.30
2023-03-26T22:15:19.120Z,8.35
2023-03-26T22:17:53.526Z,11.40
2023-03-26T22:20:24.561Z,11.38
2023-03-26T22:22:53.260Z,14.45
2023-03-26T22:25:21.010Z,13.23
2023-03-26T22:27:48.542Z,8.93
2023-03-26T22:30:15.762Z,9.27
2023-03-26T22:32:43.364Z,8.88
2023-03-26T22:35:10.414Z,11.45
2023-03-26T22:37:37.720Z,12.77
2023-03-26T22:40:08.322Z,7.65
2023-03-26T22:42:35.736Z,11.13
2023-03-26T22:45:02.623Z,7.43
2023-03-26T22:47:30.493Z,12.05
2023-03-26T22:49:57.209Z,10.20
2023-03-26T22:52:23.634Z,11.88
2023-03-26T22:54:50.018Z,8.65
2023-03-26T22:57:16.458Z,9.57
2023-03-26T22:59:43.028Z,10.23
2023-03-26T23:02:10.801Z,12.30
2023-03-26T23:04:37.568Z,6.60
2023-03-26T23:07:05.211Z,12.15
2023-03-26T23:09:31.629Z,9.02
2023-03-26T23:11:58.353Z,8.43
2023-03-26T23:14:24.866Z,12.10
2023-03-26T23:16:51.722Z,10.30
2023-03-26T23:19:18.093Z,10.60
2023-03-26T23:21:44.456Z,12.18
2023-03-26T23:24:10.891Z,14.95
2023-03-26T23:26:49.655Z,12.60
2023-03-26T23:29:17.445Z,10.15
2023-03-26T23:31:43.874Z,18.33
2023-03-26T23:34:10.929Z,8.98
2023-03-26T23:36:37.368Z,12.07
2023-03-26T23:39:04.661Z,14.50
2023-03-26T23:41:31.304Z,10.73
2023-03-26T23:43:57.760Z,13.90
2023-03-26T23:46:30.196Z,11.02
2023-03-26T23:48:59.563Z,8.00
2023-03-26T23:51:26.102Z,12.25
2023-03-26T23:53:53.349Z,11.52
2023-03-26T23:56:20.226Z,8.10
2023-03-26T23:58:47.619Z,15.07
